createdAt,value
2018-07-31T00:00:28.420Z,64.50
2018-07-31T00:02:56.800Z,64.79
2018-07-31T00:05:25.259Z,64.17
2018-07-31T00:07:53.950Z,64.61
2018-07-31T00:10:22.335Z,65.44
2018-07-31T00:12:50.719Z,64.33
2018-07-31T00:15:19.168Z,64.71
2018-07-31T00:17:47.570Z,65.06
2018-07-31T00:20:16.026Z,66.12
2018-07-31T00:22:44.397Z,64.95
2018-07-31T00:25:12.800Z,65.64
2018-07-31T00:27:41.238Z,65.56
2018-07-31T00:30:10.131Z,64.95
2018-07-31T00:32:38.519Z,64.50
2018-07-31T00:35:07.110Z,64.89
2018-07-31T00:37:35.496Z,65.27
2018-07-31T00:40:04.020Z,65.55
2018-07-31T00:42:32.485Z,65.18
2018-07-31T00:45:00.870Z,65.68
2018-07-31T00:47:29.342Z,66.61
2018-07-31T00:49:57.697Z,66.61
2018-07-31T00:52:26.070Z,66.47
2018-07-31T00:54:54.467Z,66.39
2018-07-31T00:57:22.876Z,67.58
2018-07-31T00:59:51.376Z,66.52
2018-07-31T01:02:19.783Z,67.30
2018-07-31T01:04:48.163Z,66.44
2018-07-31T01:07:16.596Z,66.54
2018-07-31T01:09:45.044Z,66.65
2018-07-31T01:12:13.539Z,66.87
2018-07-31T01:14:41.965Z,67.74
2018-07-31T01:17:10.401Z,67.48
2018-07-31T01:19:38.794Z,67.04
2018-07-31T01:22:08.151Z,67.00
2018-07-31T01:24:36.544Z,67.07
2018-07-31T01:27:05.028Z,68.16
2018-07-31T01:29:33.421Z,67.85
2018-07-31T01:32:01.808Z,67.44
2018-07-31T01:34:30.239Z,68.19
2018-07-31T01:36:58.647Z,67.35
2018-07-31T01:39:27.039Z,68.07
2018-07-31T01:41:55.404Z,68.06
2018-07-31T01:44:23.785Z,67.96
2018-07-31T01:46:52.203Z,68.82
2018-07-31T01:49:20.582Z,68.35
2018-07-31T01:51:48.990Z,68.99
2018-07-31T01:54:17.411Z,67.81
2018-07-31T01:56:45.820Z,68.20
2018-07-31T01:59:14.254Z,68.99
2018-07-31T02:01:42.688Z,67.99
2018-07-31T02:04:11.142Z,68.08
2018-07-31T02:06:39.521Z,68.65
2018-07-31T02:09:08.464Z,69.19
2018-07-31T02:11:36.833Z,68.37
2018-07-31T02:14:05.284Z,69.49
2018-07-31T02:16:33.712Z,70.09
2018-07-31T02:19:02.076Z,69.79
2018-07-31T02:21:30.464Z,69.62
2018-07-31T02:23:58.845Z,70.18
2018-07-31T02:26:27.248Z,70.55
2018-07-31T02:28:55.620Z,70.41
2018-07-31T02:31:24.050Z,70.11
2018-07-31T02:33:52.488Z,70.33
2018-07-31T02:36:20.939Z,70.31
2018-07-31T02:38:49.370Z,70.04
2018-07-31T02:41:17.770Z,69.28
2018-07-31T02:43:46.146Z,70.61
2018-07-31T02:46:14.584Z,71.56
2018-07-31T02:48:42.989Z,70.27
2018-07-31T02:51:11.409Z,71.30
2018-07-31T02:53:39.850Z,70.69
2018-07-31T02:56:08.270Z,70.99
2018-07-31T02:58:36.728Z,71.30
2018-07-31T03:01:05.192Z,72.00
2018-07-31T03:03:33.627Z,72.21
2018-07-31T03:06:01.992Z,71.74
2018-07-31T03:08:30.393Z,72.12
2018-07-31T03:10:58.767Z,71.77
2018-07-31T03:13:27.145Z,71.69
2018-07-31T03:15:55.555Z,71.67
2018-07-31T03:18:23.937Z,72.03
2018-07-31T03:20:52.353Z,71.50
2018-07-31T03:23:20.782Z,72.01
2018-07-31T03:25:49.131Z,72.02
2018-07-31T03:28:17.587Z,71.51
2018-07-31T03:30:45.941Z,72.10
2018-07-31T03:33:14.389Z,72.33
2018-07-31T03:35:42.848Z,72.87
2018-07-31T03:38:11.215Z,73.15
2018-07-31T03:40:40.627Z,72.64
2018-07-31T03:43:09.020Z,72.83
2018-07-31T03:45:37.431Z,72.59
2018-07-31T03:48:05.900Z,72.00
2018-07-31T03:50:34.324Z,73.00
2018-07-31T03:53:02.714Z,72.86
2018-07-31T03:55:31.104Z,72.97
2018-07-31T03:57:59.542Z,73.57
2018-07-31T04:00:27.991Z,73.15
2018-07-31T04:02:56.409Z,73.48
2018-07-31T04:05:24.838Z,73.36
2018-07-31T04:07:53.299Z,73.40
2018-07-31T04:10:21.731Z,73.03
2018-07-31T04:12:50.145Z,73.42
2018-07-31T04:15:18.560Z,73.29
2018-07-31T04:17:53.401Z,73.64
2018-07-31T04:20:22.141Z,73.11
2018-07-31T04:22:51.025Z,73.16
2018-07-31T04:25:19.433Z,73.32
2018-07-31T04:27:47.918Z,73.63
2018-07-31T04:30:16.409Z,73.81
2018-07-31T04:32:44.932Z,73.69
2018-07-31T04:35:13.438Z,75.19
2018-07-31T04:37:42.319Z,74.61
2018-07-31T04:40:10.731Z,74.95
2018-07-31T04:42:39.154Z,74.16
2018-07-31T04:45:09.004Z,74.50
2018-07-31T04:47:38.071Z,75.20
2018-07-31T04:50:06.676Z,74.52
2018-07-31T04:52:35.061Z,74.02
2018-07-31T04:55:04.371Z,73.33
2018-07-31T04:57:32.780Z,73.98
2018-07-31T05:00:01.279Z,73.93
2018-07-31T05:02:29.691Z,74.14
2018-07-31T05:04:58.126Z,74.35
2018-07-31T05:07:26.499Z,74.62
2018-07-31T05:09:54.946Z,74.84
2018-07-31T05:12:23.524Z,75.21
2018-07-31T05:14:51.925Z,74.99
2018-07-31T05:17:21.136Z,74.54
2018-07-31T05:19:49.539Z,74.77
2018-07-31T05:22:17.955Z,73.94
2018-07-31T05:24:46.343Z,73.99
2018-07-31T05:27:14.749Z,74.78
2018-07-31T05:29:43.154Z,74.35
2018-07-31T05:32:11.565Z,74.54
2018-07-31T05:34:40.081Z,74.45
2018-07-31T05:37:08.485Z,75.24
2018-07-31T05:39:36.892Z,74.98
2018-07-31T05:42:07.936Z,74.92
2018-07-31T05:44:36.448Z,75.27
2018-07-31T05:47:04.863Z,75.25
2018-07-31T05:49:33.262Z,74.62
2018-07-31T05:52:01.745Z,74.67
2018-07-31T05:54:30.117Z,74.77
2018-07-31T05:56:58.593Z,75.16
2018-07-31T05:59:27.236Z,75.10
2018-07-31T06:01:55.976Z,73.72
2018-07-31T06:04:24.780Z,73.45
2018-07-31T06:06:53.182Z,73.92
2018-07-31T06:09:21.607Z,73.68
2018-07-31T06:11:50.019Z,74.21
2018-07-31T06:14:18.404Z,73.70
2018-07-31T06:16:46.828Z,72.35
2018-07-31T06:19:15.228Z,73.48
2018-07-31T06:21:43.663Z,73.40
2018-07-31T06:24:12.059Z,73.17
2018-07-31T06:26:40.692Z,72.71
2018-07-31T06:29:09.140Z,72.83
2018-07-31T06:31:37.610Z,72.70
2018-07-31T06:34:06.202Z,73.17
2018-07-31T06:36:34.672Z,73.83
2018-07-31T06:39:03.254Z,72.49
2018-07-31T06:41:33.101Z,72.05
2018-07-31T06:44:01.595Z,72.82
2018-07-31T06:46:30.593Z,73.19
2018-07-31T06:48:58.956Z,73.05
2018-07-31T06:51:27.704Z,71.25
2018-07-31T06:53:57.771Z,71.62
2018-07-31T06:56:26.199Z,71.91
2018-07-31T06:58:54.780Z,72.43
2018-07-31T07:01:23.241Z,72.29
2018-07-31T07:03:51.712Z,72.95
2018-07-31T07:06:20.060Z,72.38
2018-07-31T07:08:48.803Z,72.50
2018-07-31T07:11:17.245Z,71.74
2018-07-31T07:13:45.645Z,71.57
2018-07-31T07:16:14.140Z,70.65
2018-07-31T07:18:42.548Z,72.48
2018-07-31T07:21:10.930Z,72.74
2018-07-31T07:23:39.296Z,72.02
2018-07-31T07:26:07.717Z,71.00
2018-07-31T07:28:36.084Z,72.02
2018-07-31T07:31:04.482Z,71.50
2018-07-31T07:33:32.914Z,71.05
2018-07-31T07:36:01.304Z,71.94
2018-07-31T07:38:29.722Z,71.44
2018-07-31T07:40:58.193Z,71.58
2018-07-31T07:43:26.622Z,70.89
2018-07-31T07:45:55.031Z,70.73
2018-07-31T07:48:23.491Z,69.96
2018-07-31T07:50:51.853Z,70.30
2018-07-31T07:53:21.323Z,69.66
2018-07-31T07:55:49.734Z,69.25
2018-07-31T07:58:18.194Z,69.14
2018-07-31T08:00:46.637Z,68.76
2018-07-31T08:03:15.080Z,68.51
2018-07-31T08:05:44.042Z,68.90
2018-07-31T08:08:12.463Z,68.91
2018-07-31T08:10:42.899Z,67.87
2018-07-31T08:13:11.678Z,68.25
2018-07-31T08:15:40.121Z,68.70
2018-07-31T08:18:08.536Z,68.03
2018-07-31T08:20:36.899Z,67.38
2018-07-31T08:23:05.490Z,66.73
2018-07-31T08:25:33.920Z,67.25
2018-07-31T08:28:02.369Z,68.38
2018-07-31T08:30:30.764Z,67.74
2018-07-31T08:32:59.220Z,67.12
2018-07-31T08:35:28.212Z,68.02
2018-07-31T08:37:57.064Z,67.79
2018-07-31T08:40:25.459Z,67.68
2018-07-31T08:42:53.943Z,66.65
2018-07-31T08:45:22.413Z,66.68
2018-07-31T08:47:50.877Z,65.94
2018-07-31T08:50:19.311Z,65.60
2018-07-31T08:52:47.740Z,64.16
2018-07-31T08:55:16.265Z,64.04
2018-07-31T08:57:44.647Z,63.75
2018-07-31T09:00:13.103Z,62.37
2018-07-31T09:02:41.522Z,62.92
2018-07-31T09:05:09.965Z,64.13
2018-07-31T09:07:38.411Z,63.76
2018-07-31T09:10:06.968Z,61.72
2018-07-31T09:12:36.099Z,60.75
2018-07-31T09:15:04.642Z,58.93
2018-07-31T09:17:33.101Z,59.39
2018-07-31T09:20:01.450Z,59.22
2018-07-31T09:22:29.864Z,59.25
2018-07-31T09:24:58.246Z,59.53
2018-07-31T09:27:27.715Z,58.42
2018-07-31T09:29:56.148Z,59.73
2018-07-31T09:32:29.912Z,60.17
2018-07-31T09:34:58.360Z,58.78
2018-07-31T09:37:27.421Z,59.04
2018-07-31T09:39:55.860Z,56.79
2018-07-31T09:42:24.249Z,55.36
2018-07-31T09:44:52.654Z,55.27
2018-07-31T09:47:21.130Z,54.03
2018-07-31T09:49:49.568Z,55.18
2018-07-31T09:52:17.946Z,52.63
2018-07-31T09:54:47.584Z,50.30
2018-07-31T09:57:16.039Z,50.31
2018-07-31T09:59:44.431Z,50.18
2018-07-31T10:02:12.822Z,50.23
2018-07-31T10:04:41.389Z,50.72
2018-07-31T10:07:09.823Z,50.41
2018-07-31T10:09:38.263Z,50.87
2018-07-31T10:12:06.753Z,51.04
2018-07-31T10:14:35.171Z,51.01
2018-07-31T10:17:04.319Z,51.09
2018-07-31T10:19:32.783Z,50.75
2018-07-31T10:22:01.213Z,50.32
2018-07-31T10:24:29.614Z,50.74
2018-07-31T10:26:58.026Z,49.34
2018-07-31T10:29:26.410Z,48.74
2018-07-31T10:31:54.846Z,50.07
2018-07-31T10:34:24.257Z,49.89
2018-07-31T10:36:53.032Z,48.57
2018-07-31T10:39:21.482Z,48.60
2018-07-31T10:41:49.898Z,50.15
2018-07-31T10:44:18.294Z,50.64
2018-07-31T10:46:46.720Z,49.77
2018-07-31T10:49:15.145Z,49.38
2018-07-31T10:51:43.561Z,48.73
2018-07-31T10:54:12.000Z,48.81
2018-07-31T10:56:40.393Z,48.26
2018-07-31T10:59:09.121Z,48.54
2018-07-31T11:01:37.494Z,47.48
2018-07-31T11:04:06.227Z,46.95
2018-07-31T11:06:34.662Z,47.52
2018-07-31T11:09:03.882Z,47.37
2018-07-31T11:11:32.809Z,46.92
2018-07-31T11:14:01.841Z,45.97
2018-07-31T11:16:30.281Z,45.63
2018-07-31T11:18:58.684Z,45.45
2018-07-31T11:21:27.056Z,45.11
2018-07-31T11:23:55.479Z,45.95
2018-07-31T11:26:24.481Z,46.59
2018-07-31T11:28:52.868Z,45.96
2018-07-31T11:31:21.321Z,46.20
2018-07-31T11:33:50.114Z,47.05
2018-07-31T11:36:18.789Z,46.26
2018-07-31T11:38:47.497Z,46.41
2018-07-31T11:41:16.044Z,45.11
2018-07-31T11:43:44.455Z,44.94
2018-07-31T11:46:12.929Z,45.14
2018-07-31T11:48:42.388Z,46.20
2018-07-31T11:51:10.771Z,45.07
2018-07-31T11:53:39.125Z,45.85
2018-07-31T11:56:07.614Z,45.86
2018-07-31T11:58:36.064Z,47.02
2018-07-31T12:01:04.547Z,43.75
2018-07-31T12:03:32.980Z,44.57
2018-07-31T12:06:01.451Z,45.60
2018-07-31T12:08:33.352Z,44.56
2018-07-31T12:11:01.860Z,44.61
2018-07-31T12:13:30.424Z,44.26
2018-07-31T12:15:58.990Z,44.21
2018-07-31T12:18:27.541Z,45.33
2018-07-31T12:20:55.971Z,46.23
2018-07-31T12:23:24.947Z,43.93
2018-07-31T12:25:54.409Z,43.28
2018-07-31T12:28:22.862Z,42.98
2018-07-31T12:30:51.567Z,42.06
2018-07-31T12:33:20.012Z,41.67
2018-07-31T12:35:48.422Z,41.30
2018-07-31T12:38:17.596Z,41.00
2018-07-31T12:40:45.938Z,41.30
2018-07-31T12:43:14.362Z,41.13
2018-07-31T12:45:42.807Z,41.62
2018-07-31T12:48:11.302Z,39.73
2018-07-31T12:50:40.599Z,39.91
2018-07-31T12:53:09.014Z,40.54
2018-07-31T12:55:37.439Z,41.30
2018-07-31T12:58:05.861Z,41.40
2018-07-31T13:00:35.167Z,43.00
2018-07-31T13:03:03.616Z,42.78
2018-07-31T13:05:32.076Z,42.84
2018-07-31T13:08:01.055Z,41.36
2018-07-31T13:10:29.554Z,42.78
2018-07-31T13:12:58.494Z,41.93
2018-07-31T13:15:26.944Z,41.97
2018-07-31T13:17:56.115Z,41.17
2018-07-31T13:20:24.595Z,42.38
2018-07-31T13:22:53.052Z,43.22
2018-07-31T13:25:22.401Z,42.28
2018-07-31T13:27:51.185Z,42.86
2018-07-31T13:30:19.600Z,40.58
2018-07-31T13:32:48.040Z,39.35
2018-07-31T13:35:16.572Z,38.91
2018-07-31T13:37:45.339Z,39.11
2018-07-31T13:40:14.118Z,40.89
2018-07-31T13:42:42.572Z,38.92
2018-07-31T13:45:10.988Z,37.59
2018-07-31T13:47:39.404Z,37.96
2018-07-31T13:50:07.883Z,37.71
2018-07-31T13:52:36.346Z,37.19
2018-07-31T13:55:05.057Z,36.70
2018-07-31T13:57:33.582Z,37.85
2018-07-31T14:00:02.041Z,38.36
2018-07-31T14:02:31.424Z,37.90
2018-07-31T14:05:00.744Z,37.65
2018-07-31T14:07:29.194Z,38.48
2018-07-31T14:09:57.612Z,36.86
2018-07-31T14:12:26.074Z,36.90
2018-07-31T14:14:54.525Z,37.21
2018-07-31T14:17:22.944Z,37.29
2018-07-31T14:19:51.333Z,38.30
2018-07-31T14:22:19.732Z,39.14
2018-07-31T14:24:48.764Z,39.60
2018-07-31T14:27:18.106Z,40.71
2018-07-31T14:29:46.544Z,40.71
2018-07-31T14:32:14.943Z,40.51
2018-07-31T14:34:43.397Z,39.07
2018-07-31T14:37:11.811Z,38.77
2018-07-31T14:39:40.224Z,39.19
2018-07-31T14:42:09.104Z,37.02
2018-07-31T14:44:37.572Z,38.94
2018-07-31T14:47:06.021Z,37.29
2018-07-31T14:49:34.455Z,35.92
2018-07-31T14:52:02.837Z,37.20
2018-07-31T14:54:31.239Z,37.25
2018-07-31T14:56:59.761Z,35.34
2018-07-31T14:59:28.779Z,36.71
2018-07-31T15:01:57.187Z,34.90
2018-07-31T15:04:25.592Z,35.53
2018-07-31T15:06:54.006Z,34.89
2018-07-31T15:09:22.408Z,35.61
2018-07-31T15:11:50.927Z,34.99
2018-07-31T15:14:19.325Z,34.48
2018-07-31T15:16:47.789Z,34.37
2018-07-31T15:19:17.140Z,33.67
2018-07-31T15:21:45.585Z,35.29
2018-07-31T15:24:16.216Z,34.40
2018-07-31T15:26:44.671Z,34.32
2018-07-31T15:29:13.097Z,34.98
2018-07-31T15:31:41.559Z,35.39
2018-07-31T15:34:09.958Z,33.81
2018-07-31T15:36:38.444Z,34.25
2018-07-31T15:39:11.233Z,34.38
2018-07-31T15:41:40.876Z,34.35
2018-07-31T15:44:09.499Z,33.80
2018-07-31T15:46:37.916Z,33.70
2018-07-31T15:49:06.470Z,32.90
2018-07-31T15:51:34.876Z,34.67
2018-07-31T15:54:03.326Z,34.74
2018-07-31T15:56:31.718Z,35.50
2018-07-31T15:59:00.144Z,34.56
2018-07-31T16:01:29.415Z,34.42
2018-07-31T16:03:58.617Z,34.89
2018-07-31T16:06:26.995Z,33.93
2018-07-31T16:08:55.482Z,35.58
2018-07-31T16:11:23.904Z,35.60
2018-07-31T16:13:52.631Z,35.29
2018-07-31T16:16:21.065Z,34.59
2018-07-31T16:18:49.495Z,34.98
2018-07-31T16:21:18.560Z,34.83
2018-07-31T16:23:46.966Z,34.50
2018-07-31T16:26:15.432Z,34.66
2018-07-31T16:28:43.841Z,35.24
2018-07-31T16:31:12.286Z,34.94
2018-07-31T16:33:40.784Z,35.38
2018-07-31T16:36:09.253Z,34.72
2018-07-31T16:38:37.628Z,34.85
2018-07-31T16:41:06.030Z,34.77
2018-07-31T16:43:34.392Z,36.04
2018-07-31T16:46:03.167Z,34.68
2018-07-31T16:48:31.620Z,35.51
2018-07-31T16:51:00.065Z,37.65
2018-07-31T16:53:28.463Z,35.88
2018-07-31T16:55:56.833Z,35.68
2018-07-31T16:58:25.277Z,33.48
2018-07-31T17:00:53.685Z,33.48
2018-07-31T17:03:22.392Z,34.49
2018-07-31T17:05:50.818Z,35.00
2018-07-31T17:08:19.240Z,34.44
2018-07-31T17:10:47.691Z,34.64
2018-07-31T17:13:16.098Z,34.17
2018-07-31T17:15:44.513Z,33.94
2018-07-31T17:18:13.011Z,34.14
2018-07-31T17:20:41.431Z,33.46
2018-07-31T17:23:09.841Z,35.96
2018-07-31T17:25:38.292Z,33.58
2018-07-31T17:28:06.682Z,34.81
2018-07-31T17:30:35.121Z,34.81
2018-07-31T17:33:05.824Z,35.40
2018-07-31T17:35:34.419Z,36.86
2018-07-31T17:38:02.869Z,35.90
2018-07-31T17:40:31.265Z,36.21
2018-07-31T17:42:59.672Z,37.66
2018-07-31T17:45:28.088Z,36.84
2018-07-31T17:47:56.472Z,37.54
2018-07-31T17:50:25.007Z,37.87
2018-07-31T17:52:53.512Z,39.05
2018-07-31T17:55:21.964Z,38.42
2018-07-31T17:57:50.360Z,38.79
2018-07-31T18:00:18.822Z,38.24
2018-07-31T18:02:47.248Z,39.00
2018-07-31T18:05:15.677Z,39.02
2018-07-31T18:07:44.186Z,40.14
2018-07-31T18:10:12.595Z,38.93
2018-07-31T18:12:41.000Z,39.01
2018-07-31T18:15:09.425Z,40.40
2018-07-31T18:17:37.919Z,39.86
2018-07-31T18:20:06.486Z,40.43
2018-07-31T18:22:34.884Z,40.10
2018-07-31T18:25:03.401Z,40.63
2018-07-31T18:27:31.788Z,41.80
2018-07-31T18:30:00.231Z,41.70
2018-07-31T18:32:28.824Z,43.11
2018-07-31T18:34:57.313Z,43.40
2018-07-31T18:37:25.786Z,43.56
2018-07-31T18:39:54.494Z,44.25
2018-07-31T18:42:22.968Z,44.19
2018-07-31T18:44:51.411Z,44.67
2018-07-31T18:47:19.855Z,44.23
2018-07-31T18:49:48.281Z,43.96
2018-07-31T18:52:16.702Z,44.70
2018-07-31T18:54:45.143Z,45.31
2018-07-31T18:57:14.132Z,45.11
2018-07-31T18:59:42.817Z,45.18
2018-07-31T19:02:11.237Z,45.45
2018-07-31T19:04:39.695Z,45.56
2018-07-31T19:07:08.092Z,45.83
2018-07-31T19:09:36.567Z,47.03
2018-07-31T19:12:05.096Z,46.21
2018-07-31T19:14:33.532Z,46.18
2018-07-31T19:17:02.054Z,47.49
2018-07-31T19:19:30.573Z,47.41
2018-07-31T19:21:59.062Z,47.21
2018-07-31T19:24:27.920Z,47.16
2018-07-31T19:26:56.392Z,47.83
2018-07-31T19:29:24.773Z,48.00
2018-07-31T19:31:53.169Z,47.49
2018-07-31T19:34:21.614Z,48.53
2018-07-31T19:36:50.026Z,47.80
2018-07-31T19:39:18.445Z,48.20
2018-07-31T19:41:46.959Z,48.13
2018-07-31T19:44:15.364Z,48.52
2018-07-31T19:46:43.824Z,49.13
2018-07-31T19:49:12.267Z,48.69
2018-07-31T19:51:40.706Z,48.06
2018-07-31T19:54:09.168Z,48.93
2018-07-31T19:56:37.591Z,49.05
2018-07-31T19:59:06.356Z,49.10
2018-07-31T20:01:34.939Z,49.40
2018-07-31T20:04:03.399Z,49.58
2018-07-31T20:06:31.960Z,48.85
2018-07-31T20:09:00.383Z,49.09
2018-07-31T20:11:28.860Z,49.69
2018-07-31T20:13:57.297Z,50.55
2018-07-31T20:16:25.929Z,50.89
2018-07-31T20:18:54.333Z,49.88
2018-07-31T20:21:22.798Z,49.01
2018-07-31T20:23:51.225Z,50.30
2018-07-31T20:26:19.671Z,49.62
2018-07-31T20:28:48.139Z,49.99
2018-07-31T20:31:16.585Z,49.69
2018-07-31T20:33:45.000Z,49.67
2018-07-31T20:36:14.318Z,49.52
2018-07-31T20:38:42.760Z,51.18
2018-07-31T20:41:11.175Z,50.31
2018-07-31T20:43:39.638Z,50.10
2018-07-31T20:46:08.143Z,50.38
2018-07-31T20:48:36.585Z,51.04
2018-07-31T20:51:05.047Z,51.57
2018-07-31T20:53:33.484Z,50.26
2018-07-31T20:56:01.856Z,51.25
2018-07-31T20:58:30.272Z,50.88
2018-07-31T21:00:58.997Z,50.57
2018-07-31T21:03:27.420Z,51.55
2018-07-31T21:05:55.840Z,51.72
2018-07-31T21:08:24.265Z,51.31
2018-07-31T21:10:52.740Z,50.67
2018-07-31T21:13:21.143Z,50.99
2018-07-31T21:15:49.601Z,51.12
2018-07-31T21:18:18.068Z,51.29
2018-07-31T21:20:46.479Z,51.22
2018-07-31T21:23:14.874Z,51.25
2018-07-31T21:25:43.360Z,50.85
2018-07-31T21:28:11.760Z,51.29
2018-07-31T21:30:40.217Z,51.14
2018-07-31T21:33:08.615Z,51.47
2018-07-31T21:35:37.025Z,51.13
2018-07-31T21:38:05.526Z,50.65
2018-07-31T21:40:33.907Z,50.56
2018-07-31T21:43:02.308Z,50.72
2018-07-31T21:45:30.687Z,50.23
2018-07-31T21:47:59.124Z,51.36
2018-07-31T21:50:27.550Z,50.47
2018-07-31T21:52:55.968Z,51.73
2018-07-31T21:55:24.594Z,50.41
2018-07-31T21:57:52.948Z,50.79
2018-07-31T22:00:21.370Z,51.54
2018-07-31T22:02:49.797Z,50.87
2018-07-31T22:05:18.210Z,52.16
2018-07-31T22:07:46.669Z,51.47
2018-07-31T22:10:15.064Z,51.95
2018-07-31T22:12:43.488Z,50.84
2018-07-31T22:15:11.862Z,50.37
2018-07-31T22:17:40.297Z,50.68
2018-07-31T22:20:08.726Z,50.58
2018-07-31T22:22:37.150Z,50.76
2018-07-31T22:25:05.697Z,50.64
2018-07-31T22:27:34.129Z,50.12
2018-07-31T22:30:02.564Z,51.14
2018-07-31T22:32:30.996Z,50.35
2018-07-31T22:34:59.373Z,51.09
2018-07-31T22:37:27.891Z,50.65
2018-07-31T22:39:56.332Z,51.32
2018-07-31T22:42:24.752Z,50.45
2018-07-31T22:44:53.824Z,51.00
2018-07-31T22:47:22.704Z,51.29
2018-07-31T22:49:51.125Z,51.20
2018-07-31T22:52:19.760Z,51.49
2018-07-31T22:54:48.155Z,50.83
2018-07-31T22:57:17.619Z,51.33
2018-07-31T22:59:46.060Z,51.64
2018-07-31T23:02:14.471Z,51.20
2018-07-31T23:04:42.891Z,51.20
2018-07-31T23:07:12.161Z,51.88
2018-07-31T23:09:40.529Z,51.70
2018-07-31T23:12:08.922Z,51.84
2018-07-31T23:14:37.377Z,52.73
2018-07-31T23:17:05.828Z,52.85
2018-07-31T23:19:34.275Z,52.17
2018-07-31T23:22:02.680Z,52.72
2018-07-31T23:24:31.110Z,53.19
2018-07-31T23:26:59.508Z,52.59
2018-07-31T23:29:27.916Z,53.29
2018-07-31T23:31:56.331Z,52.52
2018-07-31T23:34:24.749Z,53.18
2018-07-31T23:36:53.138Z,52.52
2018-07-31T23:39:21.563Z,52.67
2018-07-31T23:41:49.971Z,53.34
2018-07-31T23:44:18.336Z,53.57
2018-07-31T23:46:46.726Z,53.31
2018-07-31T23:49:15.160Z,53.21
2018-07-31T23:51:43.554Z,54.77
2018-07-31T23:54:12.000Z,54.94
2018-07-31T23:56:40.468Z,53.93
2018-07-31T23:59:08.854Z,53.71
